Cleveland, Ohio
Traffic Map
Current Weather Conditions
Cleveland, Ohio
Clear
Clear
23°
Feels Like: 23°
Wind Chill: 23° Ceiling: Unl
Heat Index: 23° Visibility: 10mi
Dew Point: 18° Wind: 9mph
Humidity: 73% Direction: 160° (SSE)
Pressure: 30.03in Gusts: 0mph
Raw Report DataKBKL 280953Z AUTO 16008KT 10SM CLR 23/18 A3003 RMK AO2 SLP165 T02280178 TSNO
Traffic Incident Summary
Active as of:
Severity:
Category:
InformationThere was an issue retrieving the traffic information for this location. Please try a different location or try again shortly.
Advertisements
Track Severe Weather on mobile